Berlin Township, Michigan
Current Conditions -  °F | °C
As of 11:14 AM on Sunday 23 Nov 2014 (Local Time) from KD95 Reporting Station
Light Rain Light Rain  
Wind Chill: 45°   Ceiling: 3400
Heat Index: 48°   Visibility: 10mi
Dew Point: 44°   Wind: 7mph
Humidity: 86%   Direction: 190°S
Pressure: 29.87"   Gusts: NA
Location:  42.9384°N, 82.9255°W
Report Text: KD95 231614Z AUTO 19006KT 10SM -RA OVC034 09/07 A2987 RMK AO2 T00880066
Loading
Personal Weather Stations






























Interactive Weather Map New forecast layout! Learn more

10-Day Weather Forecast

Advertisements
Track Severe Weather on mobile